Time;durP1;ratioP1;P1;durP2;ratioP2;P2;SDS_P1;SDS_P2;PMS_P1;PMS_P2;Temp;Humidity;BMP_temperature;BMP_pressure;BME280_temperature;BME280_humidity;BME280_pressure;Samples;Min_cycle;Max_cycle;Signal;HPM_P1;HPM_P2
2023/08/25 00:02:12;;;;;;;7.60;6.00;;;;;;;-128.00;-1.00;-1.00;68680;285;4502953;-36
2023/08/25 00:04:38;;;;;;;8.40;6.00;;;;;;;-128.00;-1.00;-1.00;18891;285;7505151;-37
2023/08/25 00:07:04;;;;;;;6.70;5.60;;;;;;;-128.00;-1.00;-1.00;18882;319;7504521;-36
2023/08/25 00:09:30;;;;;;;9.60;5.40;;;;;;;-128.00;-1.00;-1.00;18877;285;7504386;-35
2023/08/25 00:11:58;;;;;;;9.50;5.70;;;;;;;-128.00;-1.00;-1.00;20321;289;7504471;-35
2023/08/25 00:14:25;;;;;;;6.50;5.40;;;;;;;-128.00;-1.00;-1.00;18891;285;7504322;-34
2023/08/25 00:16:51;;;;;;;6.70;5.50;;;;;;;-128.00;-1.00;-1.00;18848;338;7504921;-35
2023/08/25 00:19:18;;;;;;;7.20;5.30;;;;;;;-128.00;-1.00;-1.00;19146;296;7504614;-35
2023/08/25 00:21:45;;;;;;;6.30;5.20;;;;;;;-128.00;-1.00;-1.00;18469;289;7505823;-35
2023/08/25 00:24:12;;;;;;;15.90;12.20;;;;;;;-128.00;-1.00;-1.00;23057;296;7504394;-31
2023/08/25 00:26:39;;;;;;;69.20;37.80;;;;;;;-128.00;-1.00;-1.00;18896;285;7505223;-35
2023/08/25 00:29:06;;;;;;;80.80;56.20;;;;;;;-128.00;-1.00;-1.00;18488;296;7505607;-31
2023/08/25 00:31:32;;;;;;;21.20;17.50;;;;;;;-128.00;-1.00;-1.00;18462;297;7504661;-32
2023/08/25 00:34:02;;;;;;;5.60;5.20;;;;;;;-128.00;-1.00;-1.00;18481;285;7504682;-31
2023/08/25 00:36:28;;;;;;;7.90;6.80;;;;;;;-128.00;-1.00;-1.00;18484;296;7504638;-36
2023/08/25 01:20:00;;;;;;;9.10;7.10;;;;;;;-99.13;17.73;19810.88;69627;294;3004093;-35
2023/08/25 01:22:44;;;;;;;7.90;7.20;;;;;;;-128.00;-1.00;-1.00;18117;294;7506054;-35
2023/08/25 01:25:30;;;;;;;9.00;7.60;;;;;;;-128.00;-1.00;-1.00;18497;335;7504603;-31
2023/08/25 01:28:00;;;;;;;11.50;6.10;;;;;;;-128.00;-1.00;-1.00;18509;295;7506887;-32
2023/08/25 01:30:27;;;;;;;11.40;5.90;;;;;;;-128.00;-1.00;-1.00;18520;301;7504295;-35
2023/08/25 01:32:53;;;;;;;18.50;6.90;;;;;;;-128.00;-1.00;-1.00;18515;294;7506057;-35
2023/08/25 01:35:21;;;;;;;19.00;5.80;;;;;;;-128.00;-1.00;-1.00;18480;294;7506475;-31
2023/08/25 01:37:53;;;;;;;15.40;7.00;;;;;;;-128.00;-1.00;-1.00;18514;294;7504272;-35
2023/08/25 01:40:23;;;;;;;8.10;6.00;;;;;;;-128.00;-1.00;-1.00;18506;294;7504398;-35
2023/08/25 01:42:49;;;;;;;7.40;6.30;;;;;;;-128.00;-1.00;-1.00;18494;293;7504740;-31
2023/08/25 01:45:17;;;;;;;13.60;5.70;;;;;;;-128.00;-1.00;-1.00;18462;306;7506216;-31
2023/08/25 01:47:43;;;;;;;12.10;8.00;;;;;;;-128.00;-1.00;-1.00;18452;283;7504494;-33
2023/08/25 01:50:09;;;;;;;5.30;4.60;;;;;;;-128.00;-1.00;-1.00;18482;306;7505172;-34
2023/08/25 01:52:35;;;;;;;5.40;4.90;;;;;;;-128.00;-1.00;-1.00;18456;294;7505139;-34
2023/08/25 01:55:02;;;;;;;5.80;4.00;;;;;;;-128.00;-1.00;-1.00;18479;293;7504952;-34
2023/08/25 01:57:28;;;;;;;7.00;6.30;;;;;;;-128.00;-1.00;-1.00;18461;295;7504197;-36
2023/08/25 01:59:54;;;;;;;12.20;6.40;;;;;;;-128.00;-1.00;-1.00;18927;307;7504295;-32
2023/08/25 02:02:20;;;;;;;8.90;6.60;;;;;;;-128.00;-1.00;-1.00;18884;294;7504691;-31
2023/08/25 02:04:46;;;;;;;8.40;6.20;;;;;;;-128.00;-1.00;-1.00;18894;294;7504588;-35
2023/08/25 02:07:13;;;;;;;11.80;7.70;;;;;;;-128.00;-1.00;-1.00;18882;294;7504741;-32
2023/08/25 02:09:39;;;;;;;11.50;6.20;;;;;;;-128.00;-1.00;-1.00;18906;294;7504231;-32
2023/08/25 02:12:06;;;;;;;15.50;7.30;;;;;;;-128.00;-1.00;-1.00;18888;317;7504693;-31
2023/08/25 02:14:32;;;;;;;7.70;5.30;;;;;;;-128.00;-1.00;-1.00;18456;346;7505199;-36
2023/08/25 02:16:57;;;;;;;10.80;7.00;;;;;;;-128.00;-1.00;-1.00;18460;294;7504749;-35
2023/08/25 02:19:24;;;;;;;7.00;5.80;;;;;;;-128.00;-1.00;-1.00;18871;294;7504946;-32
2023/08/25 02:21:50;;;;;;;8.60;5.60;;;;;;;-128.00;-1.00;-1.00;18893;294;7505338;-35
2023/08/25 02:24:16;;;;;;;8.60;6.10;;;;;;;-128.00;-1.00;-1.00;18897;295;7504480;-32
2023/08/25 02:26:43;;;;;;;7.60;6.10;;;;;;;-128.00;-1.00;-1.00;18453;294;7506170;-35
2023/08/25 02:29:09;;;;;;;18.20;5.40;;;;;;;-128.00;-1.00;-1.00;18473;294;7504251;-36
2023/08/25 02:31:35;;;;;;;6.30;5.70;;;;;;;-128.00;-1.00;-1.00;18506;295;7504135;-31
2023/08/25 02:34:00;;;;;;;6.40;5.70;;;;;;;-128.00;-1.00;-1.00;18483;294;7506320;-36
2023/08/25 02:36:27;;;;;;;12.00;4.30;;;;;;;-128.00;-1.00;-1.00;18901;306;7504996;-31
2023/08/25 02:38:53;;;;;;;8.10;6.50;;;;;;;-128.00;-1.00;-1.00;18855;294;7504326;-32
2023/08/25 02:41:19;;;;;;;7.70;5.60;;;;;;;-128.00;-1.00;-1.00;18886;302;7504216;-32
2023/08/25 02:43:45;;;;;;;7.20;5.90;;;;;;;-128.00;-1.00;-1.00;18884;294;7504452;-32
2023/08/25 02:46:12;;;;;;;9.20;6.80;;;;;;;-128.00;-1.00;-1.00;18853;294;7504738;-32
2023/08/25 02:48:38;;;;;;;13.00;5.70;;;;;;;-128.00;-1.00;-1.00;18858;294;7506515;-32
2023/08/25 02:51:04;;;;;;;14.10;6.20;;;;;;;-128.00;-1.00;-1.00;18901;294;7505514;-35
2023/08/25 02:53:30;;;;;;;13.70;6.20;;;;;;;-128.00;-1.00;-1.00;18879;298;7504578;-31
2023/08/25 02:55:56;;;;;;;9.30;6.60;;;;;;;-128.00;-1.00;-1.00;18917;294;7505078;-31
2023/08/25 02:58:23;;;;;;;9.40;5.50;;;;;;;-128.00;-1.00;-1.00;18881;318;7504449;-31
2023/08/25 03:00:49;;;;;;;8.70;4.80;;;;;;;-128.00;-1.00;-1.00;18888;294;7504555;-34
2023/08/25 03:03:15;;;;;;;9.40;5.60;;;;;;;-128.00;-1.00;-1.00;18878;294;7504494;-31
2023/08/25 03:05:42;;;;;;;9.10;5.20;;;;;;;-128.00;-1.00;-1.00;18935;294;7504712;-30
2023/08/25 03:08:12;;;;;;;8.60;5.70;;;;;;;-128.00;-1.00;-1.00;18906;318;7504792;-31
2023/08/25 03:10:41;;;;;;;4.70;3.90;;;;;;;-128.00;-1.00;-1.00;18493;286;7504905;-35
2023/08/25 03:13:07;;;;;;;6.10;4.70;;;;;;;-128.00;-1.00;-1.00;18492;286;7505139;-31
2023/08/25 03:15:35;;;;;;;9.60;4.90;;;;;;;-128.00;-1.00;-1.00;18874;294;7505792;-35
2023/08/25 03:18:00;;;;;;;8.30;4.80;;;;;;;-128.00;-1.00;-1.00;18479;294;7504180;-36
2023/08/25 03:20:27;;;;;;;8.60;5.80;;;;;;;-128.00;-1.00;-1.00;18909;294;7505167;-37
2023/08/25 03:22:54;;;;;;;17.80;6.40;;;;;;;-128.00;-1.00;-1.00;18890;294;7504436;-33
2023/08/25 03:25:19;;;;;;;8.30;5.50;;;;;;;-128.00;-1.00;-1.00;18475;294;7506248;-35
2023/08/25 03:27:45;;;;;;;10.90;5.30;;;;;;;-128.00;-1.00;-1.00;18486;295;7504714;-31
2023/08/25 03:30:12;;;;;;;6.60;4.80;;;;;;;-128.00;-1.00;-1.00;18872;335;7506313;-32
2023/08/25 03:32:37;;;;;;;8.30;6.20;;;;;;;-128.00;-1.00;-1.00;18470;287;7504521;-32
2023/08/25 03:35:04;;;;;;;8.40;5.70;;;;;;;-128.00;-1.00;-1.00;18881;294;7504272;-35
2023/08/25 03:37:30;;;;;;;14.90;5.10;;;;;;;-128.00;-1.00;-1.00;18506;294;7505058;-36
2023/08/25 03:39:56;;;;;;;9.10;6.00;;;;;;;-128.00;-1.00;-1.00;18873;294;7504881;-35
2023/08/25 03:42:22;;;;;;;9.90;5.30;;;;;;;-128.00;-1.00;-1.00;18877;306;7505137;-33
2023/08/25 03:44:48;;;;;;;12.70;6.80;;;;;;;-128.00;-1.00;-1.00;18871;294;7504508;-32
2023/08/25 03:47:14;;;;;;;10.20;6.40;;;;;;;-128.00;-1.00;-1.00;18885;346;7505011;-35
2023/08/25 03:49:40;;;;;;;13.80;5.90;;;;;;;-128.00;-1.00;-1.00;18877;295;7505191;-35
2023/08/25 03:52:08;;;;;;;6.30;5.10;;;;;;;-128.00;-1.00;-1.00;18471;346;7506081;-35
2023/08/25 03:54:35;;;;;;;6.40;4.80;;;;;;;-128.00;-1.00;-1.00;18467;294;7504770;-31
2023/08/25 03:57:01;;;;;;;9.00;5.40;;;;;;;-128.00;-1.00;-1.00;18502;294;7506586;-31
2023/08/25 03:59:29;;;;;;;18.90;5.80;;;;;;;-128.00;-1.00;-1.00;18488;310;7504113;-35
2023/08/25 04:01:54;;;;;;;10.20;6.00;;;;;;;-128.00;-1.00;-1.00;18476;330;7504723;-31
2023/08/25 04:04:20;;;;;;;7.50;5.30;;;;;;;-128.00;-1.00;-1.00;18900;295;7504164;-31
2023/08/25 04:06:47;;;;;;;11.50;5.70;;;;;;;-128.00;-1.00;-1.00;18866;295;7504419;-33
2023/08/25 04:09:13;;;;;;;7.10;5.10;;;;;;;-128.00;-1.00;-1.00;18879;294;7504908;-35
2023/08/25 04:11:39;;;;;;;6.50;5.80;;;;;;;-128.00;-1.00;-1.00;18474;335;7504972;-35
2023/08/25 04:14:05;;;;;;;6.30;5.10;;;;;;;-128.00;-1.00;-1.00;18466;295;7505356;-32
2023/08/25 04:16:30;;;;;;;8.80;6.30;;;;;;;-128.00;-1.00;-1.00;18482;295;7504686;-32
2023/08/25 04:18:56;;;;;;;11.40;5.40;;;;;;;-128.00;-1.00;-1.00;18870;294;7504654;-32
2023/08/25 04:21:23;;;;;;;8.70;5.60;;;;;;;-128.00;-1.00;-1.00;18868;294;7504461;-35
2023/08/25 04:23:56;;;;;;;7.20;5.00;;;;;;;-128.00;-1.00;-1.00;18463;295;7504589;-31
2023/08/25 04:26:21;;;;;;;7.40;4.10;;;;;;;-128.00;-1.00;-1.00;18491;295;7505869;-35
2023/08/25 04:28:47;;;;;;;6.00;4.70;;;;;;;-128.00;-1.00;-1.00;18504;294;7505192;-32
2023/08/25 04:31:13;;;;;;;9.10;5.90;;;;;;;-128.00;-1.00;-1.00;18481;294;7504824;-35
2023/08/25 04:33:40;;;;;;;5.10;4.50;;;;;;;-128.00;-1.00;-1.00;18455;294;7505796;-31
2023/08/25 04:36:05;;;;;;;7.40;5.30;;;;;;;-128.00;-1.00;-1.00;18510;295;7504880;-35
2023/08/25 04:38:31;;;;;;;8.90;5.40;;;;;;;-128.00;-1.00;-1.00;18452;294;7504452;-31
2023/08/25 04:40:57;;;;;;;7.40;5.50;;;;;;;-128.00;-1.00;-1.00;18864;335;7504740;-35
2023/08/25 04:43:23;;;;;;;4.40;3.70;;;;;;;-128.00;-1.00;-1.00;18870;294;7504160;-35
2023/08/25 04:45:49;;;;;;;12.90;6.20;;;;;;;-128.00;-1.00;-1.00;18877;294;7505652;-33
2023/08/25 04:48:16;;;;;;;9.20;5.90;;;;;;;-128.00;-1.00;-1.00;18885;294;7505313;-37
2023/08/25 04:50:43;;;;;;;11.90;6.60;;;;;;;-128.00;-1.00;-1.00;18857;309;7505114;-35
2023/08/25 04:53:08;;;;;;;8.20;5.80;;;;;;;-128.00;-1.00;-1.00;18518;294;7505597;-34
2023/08/25 04:55:34;;;;;;;32.10;6.30;;;;;;;-128.00;-1.00;-1.00;18467;294;7504681;-31
2023/08/25 04:58:00;;;;;;;7.80;6.50;;;;;;;-128.00;-1.00;-1.00;18475;310;7504826;-35
2023/08/25 05:00:29;;;;;;;8.30;6.80;;;;;;;-128.00;-1.00;-1.00;18471;294;7504582;-31
2023/08/25 05:02:54;;;;;;;7.00;5.30;;;;;;;-128.00;-1.00;-1.00;18505;319;7504946;-34
2023/08/25 05:05:20;;;;;;;7.40;6.50;;;;;;;-128.00;-1.00;-1.00;18461;294;7504122;-35
2023/08/25 05:07:46;;;;;;;7.10;5.60;;;;;;;-128.00;-1.00;-1.00;18473;294;7504586;-35
2023/08/25 05:10:12;;;;;;;6.40;5.20;;;;;;;-128.00;-1.00;-1.00;18855;294;7504875;-31
2023/08/25 05:12:38;;;;;;;9.70;5.80;;;;;;;-128.00;-1.00;-1.00;18878;294;7504174;-32
2023/08/25 05:15:05;;;;;;;8.40;6.60;;;;;;;-128.00;-1.00;-1.00;18888;294;7505814;-36
2023/08/25 05:17:30;;;;;;;10.30;5.60;;;;;;;-128.00;-1.00;-1.00;18491;294;7504770;-32
2023/08/25 05:19:56;;;;;;;5.30;4.40;;;;;;;-128.00;-1.00;-1.00;18479;294;7504072;-36
2023/08/25 05:22:22;;;;;;;11.70;6.50;;;;;;;-128.00;-1.00;-1.00;18906;298;7504688;-36
2023/08/25 05:24:52;;;;;;;6.50;4.80;;;;;;;-128.00;-1.00;-1.00;18887;339;7505072;-31
2023/08/25 05:27:18;;;;;;;12.30;4.70;;;;;;;-128.00;-1.00;-1.00;18497;294;7504501;-32
2023/08/25 05:29:44;;;;;;;18.60;5.40;;;;;;;-128.00;-1.00;-1.00;18495;345;7504620;-36
2023/08/25 05:32:10;;;;;;;6.30;4.90;;;;;;;-128.00;-1.00;-1.00;18494;294;7506961;-32
2023/08/25 05:34:36;;;;;;;4.80;3.80;;;;;;;-128.00;-1.00;-1.00;18498;294;7506144;-32
2023/08/25 05:37:02;;;;;;;5.80;3.80;;;;;;;-128.00;-1.00;-1.00;18492;286;7504600;-32
2023/08/25 05:39:28;;;;;;;6.60;4.60;;;;;;;-128.00;-1.00;-1.00;18479;294;7505005;-32
2023/08/25 05:41:53;;;;;;;4.40;3.40;;;;;;;-128.00;-1.00;-1.00;18532;294;7506146;-36
2023/08/25 05:44:20;;;;;;;7.40;4.70;;;;;;;-128.00;-1.00;-1.00;18888;294;7504150;-33
2023/08/25 05:46:47;;;;;;;6.50;4.80;;;;;;;-128.00;-1.00;-1.00;18860;294;7504766;-36
2023/08/25 05:49:13;;;;;;;5.20;2.60;;;;;;;-128.00;-1.00;-1.00;18487;326;7504861;-32
2023/08/25 05:51:39;;;;;;;9.40;4.70;;;;;;;-128.00;-1.00;-1.00;18472;306;7506236;-32
2023/08/25 05:54:05;;;;;;;4.70;3.10;;;;;;;-128.00;-1.00;-1.00;18497;318;7505027;-32
2023/08/25 05:56:30;;;;;;;5.40;4.20;;;;;;;-128.00;-1.00;-1.00;18488;295;7506067;-35
2023/08/25 05:58:59;;;;;;;10.10;4.80;;;;;;;-128.00;-1.00;-1.00;18495;294;7506214;-32
2023/08/25 06:01:25;;;;;;;10.70;5.30;;;;;;;-128.00;-1.00;-1.00;18499;295;7506743;-35
2023/08/25 06:03:51;;;;;;;6.90;5.00;;;;;;;-128.00;-1.00;-1.00;18458;306;7504605;-32
2023/08/25 06:06:17;;;;;;;3.60;3.10;;;;;;;-128.00;-1.00;-1.00;18471;295;7504389;-31
2023/08/25 06:08:43;;;;;;;5.10;4.50;;;;;;;-128.00;-1.00;-1.00;18473;335;7504446;-35
2023/08/25 06:11:08;;;;;;;5.40;3.50;;;;;;;-128.00;-1.00;-1.00;18471;346;7504293;-31
2023/08/25 06:13:35;;;;;;;7.40;5.70;;;;;;;-128.00;-1.00;-1.00;18892;294;7504302;-32
2023/08/25 06:16:01;;;;;;;6.80;4.20;;;;;;;-128.00;-1.00;-1.00;18491;294;7504495;-35
2023/08/25 06:18:26;;;;;;;13.10;4.60;;;;;;;-128.00;-1.00;-1.00;18498;294;7506203;-32
2023/08/25 06:20:52;;;;;;;7.70;4.60;;;;;;;-128.00;-1.00;-1.00;18466;294;7505185;-32
2023/08/25 06:23:19;;;;;;;7.60;4.60;;;;;;;-128.00;-1.00;-1.00;18481;338;7504346;-36
2023/08/25 06:25:45;;;;;;;4.50;3.60;;;;;;;-128.00;-1.00;-1.00;18456;294;7504876;-32
2023/08/25 06:28:12;;;;;;;5.90;4.30;;;;;;;-128.00;-1.00;-1.00;18481;295;7505417;-31
2023/08/25 06:30:41;;;;;;;15.20;3.70;;;;;;;-128.00;-1.00;-1.00;18498;286;7504439;-31
2023/08/25 06:33:09;;;;;;;6.30;5.50;;;;;;;-128.00;-1.00;-1.00;18509;294;7506296;-36
2023/08/25 06:35:37;;;;;;;7.20;4.90;;;;;;;-128.00;-1.00;-1.00;18461;338;7505377;-31
2023/08/25 06:38:04;;;;;;;4.60;4.20;;;;;;;-128.00;-1.00;-1.00;18480;338;7506106;-36
2023/08/25 06:40:33;;;;;;;7.50;4.90;;;;;;;-128.00;-1.00;-1.00;18500;294;7505214;-35
2023/08/25 06:43:01;;;;;;;5.70;4.70;;;;;;;-128.00;-1.00;-1.00;18461;294;7505279;-33
2023/08/25 06:45:27;;;;;;;4.20;3.70;;;;;;;-128.00;-1.00;-1.00;18501;346;7504362;-31
2023/08/25 06:47:54;;;;;;;6.10;5.30;;;;;;;-128.00;-1.00;-1.00;18496;335;7504819;-35
2023/08/25 06:50:21;;;;;;;5.00;4.00;;;;;;;-128.00;-1.00;-1.00;18507;306;7504667;-36
2023/08/25 06:52:47;;;;;;;4.90;4.30;;;;;;;-128.00;-1.00;-1.00;18499;294;7505056;-35
2023/08/25 06:55:16;;;;;;;5.50;4.90;;;;;;;-128.00;-1.00;-1.00;18497;346;7504874;-32
2023/08/25 06:57:42;;;;;;;6.10;3.80;;;;;;;-128.00;-1.00;-1.00;18494;294;7504496;-31
2023/08/25 07:00:09;;;;;;;6.00;4.10;;;;;;;-128.00;-1.00;-1.00;18460;294;7504312;-31
2023/08/25 07:02:36;;;;;;;6.00;4.10;;;;;;;-128.00;-1.00;-1.00;18474;294;7505090;-31
2023/08/25 07:05:02;;;;;;;5.30;2.70;;;;;;;-128.00;-1.00;-1.00;18472;294;7506016;-32
2023/08/25 07:07:28;;;;;;;7.90;5.30;;;;;;;-128.00;-1.00;-1.00;18492;335;7507276;-32
2023/08/25 07:09:53;;;;;;;5.30;4.40;;;;;;;-128.00;-1.00;-1.00;18476;294;7505379;-32
2023/08/25 07:12:19;;;;;;;4.90;4.10;;;;;;;-128.00;-1.00;-1.00;18479;346;7505581;-31
2023/08/25 07:14:45;;;;;;;6.20;4.00;;;;;;;-128.00;-1.00;-1.00;18489;294;7504345;-31
2023/08/25 07:17:11;;;;;;;9.50;5.50;;;;;;;-128.00;-1.00;-1.00;18497;294;7505005;-32
2023/08/25 07:19:36;;;;;;;7.20;5.20;;;;;;;-128.00;-1.00;-1.00;18490;295;7505228;-35
2023/08/25 07:22:03;;;;;;;4.80;4.10;;;;;;;-128.00;-1.00;-1.00;18484;295;7504861;-35
2023/08/25 07:24:29;;;;;;;6.10;4.10;;;;;;;-128.00;-1.00;-1.00;18457;294;7504583;-35
2023/08/25 07:26:55;;;;;;;5.20;4.50;;;;;;;-128.00;-1.00;-1.00;18511;295;7504893;-35
2023/08/25 07:29:20;;;;;;;4.40;3.60;;;;;;;-128.00;-1.00;-1.00;18487;294;7505832;-36
2023/08/25 07:31:46;;;;;;;9.80;4.60;;;;;;;-128.00;-1.00;-1.00;18470;295;7504733;-31
2023/08/25 07:34:12;;;;;;;6.60;4.70;;;;;;;-128.00;-1.00;-1.00;18872;294;7504539;-35
2023/08/25 07:36:39;;;;;;;6.80;5.50;;;;;;;-128.00;-1.00;-1.00;18890;295;7504237;-32
2023/08/25 07:39:05;;;;;;;4.50;4.00;;;;;;;-128.00;-1.00;-1.00;18471;294;7504396;-31
2023/08/25 07:41:30;;;;;;;5.60;4.70;;;;;;;-128.00;-1.00;-1.00;18484;294;7504625;-31
2023/08/25 07:43:57;;;;;;;3.90;3.60;;;;;;;-128.00;-1.00;-1.00;18471;294;7504781;-35
2023/08/25 07:46:23;;;;;;;11.00;3.60;;;;;;;-128.00;-1.00;-1.00;18500;318;7504397;-35
2023/08/25 07:48:50;;;;;;;7.40;3.90;;;;;;;-128.00;-1.00;-1.00;18476;338;7505114;-35
2023/08/25 07:51:16;;;;;;;5.50;4.40;;;;;;;-128.00;-1.00;-1.00;18467;295;7506232;-31
2023/08/25 07:53:42;;;;;;;6.80;3.50;;;;;;;-128.00;-1.00;-1.00;18511;294;7504436;-31
2023/08/25 07:56:08;;;;;;;6.40;4.10;;;;;;;-128.00;-1.00;-1.00;18458;319;7505060;-35
2023/08/25 07:58:33;;;;;;;8.60;3.50;;;;;;;-128.00;-1.00;-1.00;18463;310;7504391;-33
2023/08/25 08:01:02;;;;;;;5.20;4.10;;;;;;;-128.00;-1.00;-1.00;18488;346;7505122;-36
2023/08/25 08:03:29;;;;;;;4.90;4.20;;;;;;;-128.00;-1.00;-1.00;18469;295;7504409;-32
2023/08/25 08:05:54;;;;;;;4.40;3.90;;;;;;;-128.00;-1.00;-1.00;18467;287;7504948;-32
2023/08/25 08:08:20;;;;;;;8.70;3.90;;;;;;;-128.00;-1.00;-1.00;18471;295;7505144;-32
2023/08/25 08:10:53;;;;;;;5.50;3.40;;;;;;;-128.00;-1.00;-1.00;18488;294;7505377;-32
2023/08/25 08:13:19;;;;;;;7.20;4.10;;;;;;;-128.00;-1.00;-1.00;18489;294;7504554;-32
2023/08/25 08:15:45;;;;;;;11.20;3.40;;;;;;;-128.00;-1.00;-1.00;18484;294;7506003;-36
2023/08/25 08:18:11;;;;;;;4.60;3.50;;;;;;;-128.00;-1.00;-1.00;18887;295;7504744;-32
2023/08/25 08:20:37;;;;;;;6.80;4.10;;;;;;;-128.00;-1.00;-1.00;18875;295;7504604;-34
2023/08/25 08:23:04;;;;;;;10.60;4.20;;;;;;;-128.00;-1.00;-1.00;18903;294;7504669;-33
2023/08/25 08:25:30;;;;;;;8.10;3.70;;;;;;;-128.00;-1.00;-1.00;18858;294;7504788;-36
2023/08/25 08:27:56;;;;;;;4.70;3.30;;;;;;;-128.00;-1.00;-1.00;18478;295;7504211;-35
2023/08/25 08:30:22;;;;;;;5.10;3.90;;;;;;;-128.00;-1.00;-1.00;18887;294;7504561;-36
2023/08/25 08:32:49;;;;;;;10.00;3.50;;;;;;;-128.00;-1.00;-1.00;18859;338;7505010;-35
2023/08/25 08:35:16;;;;;;;3.30;3.00;;;;;;;-128.00;-1.00;-1.00;18477;283;7505942;-31
2023/08/25 08:37:42;;;;;;;5.10;3.30;;;;;;;-128.00;-1.00;-1.00;18501;322;7506318;-31
2023/08/25 08:40:09;;;;;;;6.70;4.00;;;;;;;-128.00;-1.00;-1.00;18464;294;7504165;-35
2023/08/25 08:42:36;;;;;;;5.00;3.80;;;;;;;-128.00;-1.00;-1.00;18496;294;7504832;-32
2023/08/25 08:45:05;;;;;;;6.20;3.60;;;;;;;-128.00;-1.00;-1.00;18502;346;7504691;-32
2023/08/25 08:47:31;;;;;;;7.90;3.00;;;;;;;-128.00;-1.00;-1.00;18490;294;7504757;-32
2023/08/25 08:49:58;;;;;;;3.50;2.90;;;;;;;-128.00;-1.00;-1.00;18475;295;7506232;-32
2023/08/25 08:52:23;;;;;;;4.60;3.50;;;;;;;-128.00;-1.00;-1.00;18467;294;7504542;-32
2023/08/25 08:54:50;;;;;;;5.70;4.20;;;;;;;-128.00;-1.00;-1.00;18462;294;7506004;-32
2023/08/25 08:57:17;;;;;;;5.00;3.50;;;;;;;-128.00;-1.00;-1.00;18869;294;7505290;-32
2023/08/25 08:59:43;;;;;;;5.40;3.40;;;;;;;-128.00;-1.00;-1.00;18507;298;7505641;-33
2023/08/25 09:02:10;;;;;;;5.20;3.50;;;;;;;-128.00;-1.00;-1.00;18485;294;7504483;-32
2023/08/25 09:04:37;;;;;;;6.50;3.10;;;;;;;-128.00;-1.00;-1.00;18480;295;7504724;-32
2023/08/25 09:07:03;;;;;;;3.60;2.10;;;;;;;-128.00;-1.00;-1.00;18484;294;7505430;-36
2023/08/25 09:09:29;;;;;;;2.90;2.60;;;;;;;-128.00;-1.00;-1.00;18494;294;7504605;-35
2023/08/25 09:11:54;;;;;;;4.00;2.90;;;;;;;-128.00;-1.00;-1.00;18489;295;7506283;-35
2023/08/25 09:14:25;;;;;;;9.30;3.00;;;;;;;-128.00;-1.00;-1.00;18476;330;7504473;-32
2023/08/25 09:16:57;;;;;;;3.60;2.70;;;;;;;-128.00;-1.00;-1.00;18493;335;7504397;-32
2023/08/25 09:19:22;;;;;;;2.90;2.40;;;;;;;-128.00;-1.00;-1.00;18433;294;7505019;-36
2023/08/25 09:21:48;;;;;;;4.90;3.30;;;;;;;-128.00;-1.00;-1.00;18467;294;7505924;-32
2023/08/25 09:24:18;;;;;;;3.20;2.70;;;;;;;-128.00;-1.00;-1.00;18186;294;8269187;-32
2023/08/25 09:26:46;;;;;;;2.30;2.00;;;;;;;-128.00;-1.00;-1.00;18456;294;7506017;-36
2023/08/25 09:29:11;;;;;;;5.90;3.50;;;;;;;-128.00;-1.00;-1.00;18494;294;7505201;-33
2023/08/25 09:31:37;;;;;;;6.20;4.00;;;;;;;-128.00;-1.00;-1.00;18473;294;7504367;-32
2023/08/25 09:34:05;;;;;;;6.00;3.60;;;;;;;-128.00;-1.00;-1.00;18493;294;7506284;-32
2023/08/25 09:36:31;;;;;;;7.50;4.00;;;;;;;-128.00;-1.00;-1.00;18460;346;7506189;-35
2023/08/25 09:38:57;;;;;;;4.00;3.10;;;;;;;-128.00;-1.00;-1.00;18469;294;7504367;-36
2023/08/25 09:41:29;;;;;;;4.10;2.50;;;;;;;-128.00;-1.00;-1.00;18505;294;7504822;-35
2023/08/25 09:43:59;;;;;;;3.00;2.50;;;;;;;-128.00;-1.00;-1.00;18467;295;7504132;-35
2023/08/25 09:46:32;;;;;;;3.20;2.90;;;;;;;-128.00;-1.00;-1.00;18490;310;7504517;-36
2023/08/25 09:49:05;;;;;;;2.70;2.10;;;;;;;-128.00;-1.00;-1.00;18480;294;7504868;-32
2023/08/25 09:51:43;;;;;;;18.10;3.20;;;;;;;-128.00;-1.00;-1.00;18457;317;7504802;-32
2023/08/25 09:54:14;;;;;;;8.50;3.30;;;;;;;-128.00;-1.00;-1.00;18473;338;7504860;-36
2023/08/25 09:56:40;;;;;;;11.00;2.50;;;;;;;-128.00;-1.00;-1.00;18477;295;7505613;-35
2023/08/25 09:59:07;;;;;;;2.80;2.20;;;;;;;-128.00;-1.00;-1.00;18459;306;7506385;-35
2023/08/25 10:01:41;;;;;;;2.80;2.60;;;;;;;-128.00;-1.00;-1.00;18494;295;7505225;-32
2023/08/25 10:04:06;;;;;;;3.50;2.70;;;;;;;-128.00;-1.00;-1.00;18481;294;7504630;-32
2023/08/25 10:06:34;;;;;;;2.30;1.70;;;;;;;-128.00;-1.00;-1.00;18475;294;7505312;-36
2023/08/25 10:08:59;;;;;;;9.30;3.00;;;;;;;-128.00;-1.00;-1.00;18464;335;7504563;-32
2023/08/25 10:11:41;;;;;;;5.60;2.00;;;;;;;-128.00;-1.00;-1.00;18475;295;7505177;-36
2023/08/25 10:14:07;;;;;;;4.80;2.90;;;;;;;-128.00;-1.00;-1.00;18479;298;7505576;-33
2023/08/25 10:16:36;;;;;;;2.80;2.60;;;;;;;-128.00;-1.00;-1.00;18465;295;7506093;-32
2023/08/25 10:19:04;;;;;;;4.50;1.60;;;;;;;-128.00;-1.00;-1.00;18486;295;7504138;-32
2023/08/25 10:21:30;;;;;;;2.80;2.00;;;;;;;-128.00;-1.00;-1.00;18495;294;7504408;-33
2023/08/25 10:23:56;;;;;;;4.60;3.10;;;;;;;-128.00;-1.00;-1.00;18472;335;7504697;-36
2023/08/25 10:26:22;;;;;;;7.40;2.00;;;;;;;-128.00;-1.00;-1.00;18481;294;7506146;-35
2023/08/25 10:28:48;;;;;;;2.30;1.80;;;;;;;-128.00;-1.00;-1.00;18470;295;7504940;-33
2023/08/25 10:31:13;;;;;;;4.10;2.20;;;;;;;-128.00;-1.00;-1.00;18463;295;7504558;-33
2023/08/25 10:33:47;;;;;;;4.70;2.40;;;;;;;-128.00;-1.00;-1.00;18478;295;7504820;-35
2023/08/25 10:36:17;;;;;;;2.60;2.30;;;;;;;-128.00;-1.00;-1.00;18498;295;7505285;-31
2023/08/25 10:39:06;;;;;;;4.80;3.00;;;;;;;-128.00;-1.00;-1.00;18480;335;7506057;-36
2023/08/25 10:41:34;;;;;;;4.10;2.00;;;;;;;-128.00;-1.00;-1.00;18441;287;7504745;-35
2023/08/25 10:43:59;;;;;;;3.10;1.70;;;;;;;-128.00;-1.00;-1.00;18488;295;7505894;-32
2023/08/25 10:46:25;;;;;;;4.80;2.40;;;;;;;-128.00;-1.00;-1.00;18880;294;7505025;-35
2023/08/25 10:49:02;;;;;;;5.20;2.80;;;;;;;-128.00;-1.00;-1.00;18877;295;7504756;-36
2023/08/25 10:51:28;;;;;;;5.00;2.70;;;;;;;-128.00;-1.00;-1.00;18522;335;7504347;-32
2023/08/25 10:53:54;;;;;;;2.40;2.00;;;;;;;-128.00;-1.00;-1.00;18484;295;7504457;-32
2023/08/25 10:56:21;;;;;;;4.90;1.70;;;;;;;-128.00;-1.00;-1.00;18486;295;7504129;-35
2023/08/25 10:59:03;;;;;;;4.90;2.50;;;;;;;-128.00;-1.00;-1.00;18471;346;7504146;-35
2023/08/25 11:01:49;;;;;;;1.70;1.60;;;;;;;-128.00;-1.00;-1.00;18488;310;7506247;-35
2023/08/25 11:04:29;;;;;;;3.10;1.80;;;;;;;-128.00;-1.00;-1.00;18484;294;7504639;-36
2023/08/25 11:06:56;;;;;;;2.20;1.50;;;;;;;-128.00;-1.00;-1.00;18494;321;7505520;-32
2023/08/25 11:09:30;;;;;;;2.00;1.10;;;;;;;-128.00;-1.00;-1.00;18489;294;7505036;-32
2023/08/25 11:11:58;;;;;;;2.80;1.10;;;;;;;-128.00;-1.00;-1.00;18463;318;7505073;-36
2023/08/25 11:14:28;;;;;;;1.20;1.10;;;;;;;-128.00;-1.00;-1.00;18470;302;7504807;-32
2023/08/25 11:16:58;;;;;;;4.30;1.70;;;;;;;-128.00;-1.00;-1.00;18474;346;7506813;-32
2023/08/25 11:19:25;;;;;;;1.60;1.40;;;;;;;-128.00;-1.00;-1.00;18479;306;7505869;-35
2023/08/25 11:22:05;;;;;;;2.10;1.60;;;;;;;-128.00;-1.00;-1.00;18483;294;7504677;-31
2023/08/25 11:24:32;;;;;;;1.70;1.10;;;;;;;-128.00;-1.00;-1.00;18487;294;7505326;-32
2023/08/25 11:27:05;;;;;;;5.10;1.00;;;;;;;-128.00;-1.00;-1.00;18469;346;7504637;-35
2023/08/25 11:29:32;;;;;;;3.40;1.70;;;;;;;-128.00;-1.00;-1.00;18459;294;7504408;-31
2023/08/25 11:31:58;;;;;;;1.60;1.50;;;;;;;-128.00;-1.00;-1.00;18468;346;7505883;-35
2023/08/25 11:34:24;;;;;;;1.50;1.40;;;;;;;-128.00;-1.00;-1.00;18485;287;7504818;-31
2023/08/25 11:36:49;;;;;;;1.80;1.30;;;;;;;-128.00;-1.00;-1.00;18489;289;7504523;-32
2023/08/25 11:39:18;;;;;;;9.30;2.00;;;;;;;-128.00;-1.00;-1.00;18894;310;7504270;-31
2023/08/25 11:41:45;;;;;;;3.30;2.10;;;;;;;-128.00;-1.00;-1.00;18505;294;7504995;-36
2023/08/25 11:44:11;;;;;;;3.60;1.30;;;;;;;-128.00;-1.00;-1.00;18471;338;7505802;-36
2023/08/25 11:46:38;;;;;;;1.80;1.40;;;;;;;-128.00;-1.00;-1.00;18452;295;7505131;-36
2023/08/25 11:49:05;;;;;;;4.20;1.70;;;;;;;-128.00;-1.00;-1.00;18459;294;7506096;-36
2023/08/25 11:51:30;;;;;;;1.90;1.50;;;;;;;-128.00;-1.00;-1.00;18478;295;7507030;-32
2023/08/25 11:53:56;;;;;;;1.80;1.00;;;;;;;-128.00;-1.00;-1.00;19232;294;7504618;-31
2023/08/25 11:56:23;;;;;;;1.60;1.10;;;;;;;-128.00;-1.00;-1.00;18864;294;7506612;-34
2023/08/25 11:58:50;;;;;;;1.90;0.90;;;;;;;-128.00;-1.00;-1.00;18883;296;7504625;-30
2023/08/25 12:01:16;;;;;;;0.80;0.80;;;;;;;-128.00;-1.00;-1.00;18468;346;7504593;-36
2023/08/25 12:03:44;;;;;;;9.30;1.20;;;;;;;-128.00;-1.00;-1.00;18862;294;7504514;-32
2023/08/25 12:06:11;;;;;;;3.70;1.60;;;;;;;-128.00;-1.00;-1.00;18471;294;7506004;-36
2023/08/25 12:08:38;;;;;;;2.00;1.10;;;;;;;-128.00;-1.00;-1.00;18507;287;7505147;-33
2023/08/25 12:11:05;;;;;;;8.40;1.50;;;;;;;-128.00;-1.00;-1.00;18479;294;7505588;-31
2023/08/25 12:13:32;;;;;;;7.00;1.40;;;;;;;-128.00;-1.00;-1.00;18479;295;7506048;-32